Brush Creek, Tennessee
Current Conditions -  °F | °C
As of 3:53 PM on Thursday 18 Dec 2014 (Local Time) from KBNA Reporting Station
Overcast Overcast  
Wind Chill: 33°   Ceiling: 5000
Heat Index: 38°   Visibility: 9mi
Dew Point: 32°   Wind: 6mph
Humidity: 79%   Direction: 20°NNE
Pressure: 30.21"   Gusts: NA
Location:  36.12°N, 86.03°W
Report Text: KBNA 182153Z 02005KT 9SM SCT015 SCT034 OVC050 03/00 A3021 RMK AO2 SLP234 T00330000
Loading
Personal Weather Stations






























Interactive Weather Map New forecast layout! Learn more

10-Day Weather Forecast

Advertisements
Track Severe Weather on mobile